sensor_id;sensor_type;location;lat;lon;timestamp;P1;P2;P0
62547;PMS7003;48602;45.192;5.722;2023-01-29T00:01:05;54.33;39.33;27.33
62547;PMS7003;48602;45.192;5.722;2023-01-29T00:03:31;60.33;46.67;33.00
62547;PMS7003;48602;45.192;5.722;2023-01-29T00:05:58;51.67;44.33;32.00
62547;PMS7003;48602;45.192;5.722;2023-01-29T00:08:23;54.00;46.00;31.67
62547;PMS7003;48602;45.192;5.722;2023-01-29T00:10:49;55.00;44.67;30.00
62547;PMS7003;48602;45.192;5.722;2023-01-29T00:13:14;57.33;45.67;30.33
62547;PMS7003;48602;45.192;5.722;2023-01-29T00:15:40;56.33;45.00;30.67
62547;PMS7003;48602;45.192;5.722;2023-01-29T00:18:05;60.00;43.33;28.67
62547;PMS7003;48602;45.192;5.722;2023-01-29T00:20:31;56.00;42.67;29.33
62547;PMS7003;48602;45.192;5.722;2023-01-29T00:22:58;58.67;45.33;28.33
62547;PMS7003;48602;45.192;5.722;2023-01-29T00:25:23;61.00;48.33;30.00
62547;PMS7003;48602;45.192;5.722;2023-01-29T00:27:49;52.67;42.00;28.00
62547;PMS7003;48602;45.192;5.722;2023-01-29T00:30:15;52.00;42.00;28.00
62547;PMS7003;48602;45.192;5.722;2023-01-29T00:32:43;62.67;48.67;30.33
62547;PMS7003;48602;45.192;5.722;2023-01-29T00:35:09;58.67;47.33;32.33
62547;PMS7003;48602;45.192;5.722;2023-01-29T00:37:35;56.00;41.67;28.00
62547;PMS7003;48602;45.192;5.722;2023-01-29T00:40:00;56.33;45.00;31.00
62547;PMS7003;48602;45.192;5.722;2023-01-29T00:42:26;55.67;45.00;30.33
62547;PMS7003;48602;45.192;5.722;2023-01-29T00:45:10;49.00;38.67;27.00
62547;PMS7003;48602;45.192;5.722;2023-01-29T00:47:36;42.00;37.67;27.33
62547;PMS7003;48602;45.192;5.722;2023-01-29T00:50:02;64.67;44.67;30.33
62547;PMS7003;48602;45.192;5.722;2023-01-29T00:52:35;52.33;42.33;30.00
62547;PMS7003;48602;45.192;5.722;2023-01-29T00:55:01;55.67;43.33;29.33
62547;PMS7003;48602;45.192;5.722;2023-01-29T00:57:28;53.00;40.67;25.67
62547;PMS7003;48602;45.192;5.722;2023-01-29T00:59:55;59.67;47.33;30.33
62547;PMS7003;48602;45.192;5.722;2023-01-29T01:02:21;58.00;47.67;30.67
62547;PMS7003;48602;45.192;5.722;2023-01-29T01:05:06;66.67;48.67;32.33
62547;PMS7003;48602;45.192;5.722;2023-01-29T01:07:37;62.33;46.67;32.67
62547;PMS7003;48602;45.192;5.722;2023-01-29T01:10:03;60.67;48.67;30.33
62547;PMS7003;48602;45.192;5.722;2023-01-29T01:12:44;65.50;49.25;33.50
62547;PMS7003;48602;45.192;5.722;2023-01-29T01:15:10;53.33;47.00;32.00
62547;PMS7003;48602;45.192;5.722;2023-01-29T01:17:36;58.67;46.00;30.67
62547;PMS7003;48602;45.192;5.722;2023-01-29T01:20:02;56.67;46.67;32.00
62547;PMS7003;48602;45.192;5.722;2023-01-29T01:22:28;61.00;47.67;32.67
62547;PMS7003;48602;45.192;5.722;2023-01-29T01:24:53;61.67;46.00;31.33
62547;PMS7003;48602;45.192;5.722;2023-01-29T01:27:19;63.33;47.00;31.00
62547;PMS7003;48602;45.192;5.722;2023-01-29T01:29:45;58.33;42.33;31.00
62547;PMS7003;48602;45.192;5.722;2023-01-29T01:32:11;55.00;42.67;28.67
62547;PMS7003;48602;45.192;5.722;2023-01-29T01:34:36;56.33;45.00;31.67
62547;PMS7003;48602;45.192;5.722;2023-01-29T01:37:02;60.33;46.00;31.00
62547;PMS7003;48602;45.192;5.722;2023-01-29T01:39:28;59.67;47.67;33.00
62547;PMS7003;48602;45.192;5.722;2023-01-29T01:41:54;58.67;47.33;34.00
62547;PMS7003;48602;45.192;5.722;2023-01-29T01:50:11;61.33;47.00;32.67
62547;PMS7003;48602;45.192;5.722;2023-01-29T01:52:41;61.67;50.00;31.33
62547;PMS7003;48602;45.192;5.722;2023-01-29T01:55:11;63.75;52.50;35.50
62547;PMS7003;48602;45.192;5.722;2023-01-29T01:57:40;63.00;51.00;35.75
62547;PMS7003;48602;45.192;5.722;2023-01-29T02:00:10;60.67;45.00;30.00
62547;PMS7003;48602;45.192;5.722;2023-01-29T02:02:40;58.67;47.67;32.67
62547;PMS7003;48602;45.192;5.722;2023-01-29T02:05:27;60.67;48.67;31.33
62547;PMS7003;48602;45.192;5.722;2023-01-29T02:08:41;58.67;48.33;31.67
62547;PMS7003;48602;45.192;5.722;2023-01-29T02:11:27;62.33;49.00;33.00
62547;PMS7003;48602;45.192;5.722;2023-01-29T02:13:53;60.67;49.00;33.33
62547;PMS7003;48602;45.192;5.722;2023-01-29T02:16:19;63.00;48.33;32.33
62547;PMS7003;48602;45.192;5.722;2023-01-29T02:18:45;61.67;49.33;33.33
62547;PMS7003;48602;45.192;5.722;2023-01-29T02:21:19;54.75;41.75;32.75
62547;PMS7003;48602;45.192;5.722;2023-01-29T02:30:02;65.67;49.00;31.67
62547;PMS7003;48602;45.192;5.722;2023-01-29T02:32:39;55.00;43.33;31.00
62547;PMS7003;48602;45.192;5.722;2023-01-29T02:35:24;66.00;51.25;35.00
62547;PMS7003;48602;45.192;5.722;2023-01-29T02:40:42;59.33;46.00;31.67
62547;PMS7003;48602;45.192;5.722;2023-01-29T02:43:21;53.00;44.00;31.00
62547;PMS7003;48602;45.192;5.722;2023-01-29T02:49:26;58.67;46.67;31.00
62547;PMS7003;48602;45.192;5.722;2023-01-29T02:51:43;53.00;42.67;29.33
62547;PMS7003;48602;45.192;5.722;2023-01-29T02:56:47;63.67;51.00;33.33
62547;PMS7003;48602;45.192;5.722;2023-01-29T02:59:19;63.67;49.00;30.33
62547;PMS7003;48602;45.192;5.722;2023-01-29T03:01:52;60.33;47.00;31.33
62547;PMS7003;48602;45.192;5.722;2023-01-29T03:04:28;57.00;44.67;29.00
62547;PMS7003;48602;45.192;5.722;2023-01-29T03:07:02;63.25;48.25;33.25
62547;PMS7003;48602;45.192;5.722;2023-01-29T03:09:41;59.00;46.00;30.67
62547;PMS7003;48602;45.192;5.722;2023-01-29T03:12:16;60.75;50.75;34.75
62547;PMS7003;48602;45.192;5.722;2023-01-29T03:14:58;62.67;50.67;33.00
62547;PMS7003;48602;45.192;5.722;2023-01-29T03:17:39;63.67;49.00;33.33
62547;PMS7003;48602;45.192;5.722;2023-01-29T03:20:18;63.33;50.67;33.67
62547;PMS7003;48602;45.192;5.722;2023-01-29T03:22:51;66.50;52.00;35.00
62547;PMS7003;48602;45.192;5.722;2023-01-29T03:25:23;65.67;50.33;33.33
62547;PMS7003;48602;45.192;5.722;2023-01-29T03:28:10;64.67;48.33;32.00
62547;PMS7003;48602;45.192;5.722;2023-01-29T03:31:02;62.33;50.00;34.33
62547;PMS7003;48602;45.192;5.722;2023-01-29T03:36:40;62.67;50.33;34.33
62547;PMS7003;48602;45.192;5.722;2023-01-29T03:39:11;60.00;49.67;34.67
62547;PMS7003;48602;45.192;5.722;2023-01-29T03:41:44;73.25;53.75;35.25
62547;PMS7003;48602;45.192;5.722;2023-01-29T03:47:31;69.50;53.00;36.00
62547;PMS7003;48602;45.192;5.722;2023-01-29T03:51:33;68.75;54.50;36.25
62547;PMS7003;48602;45.192;5.722;2023-01-29T03:58:33;68.00;54.75;35.25
62547;PMS7003;48602;45.192;5.722;2023-01-29T04:01:05;72.00;53.50;34.00
62547;PMS7003;48602;45.192;5.722;2023-01-29T04:04:08;67.67;52.33;36.00
62547;PMS7003;48602;45.192;5.722;2023-01-29T04:06:39;65.00;53.00;31.50
62547;PMS7003;48602;45.192;5.722;2023-01-29T04:09:15;72.25;54.50;35.25
62547;PMS7003;48602;45.192;5.722;2023-01-29T04:11:52;63.25;49.25;31.25
62547;PMS7003;48602;45.192;5.722;2023-01-29T04:14:23;67.75;50.50;33.50
62547;PMS7003;48602;45.192;5.722;2023-01-29T04:16:54;65.00;49.75;34.75
62547;PMS7003;48602;45.192;5.722;2023-01-29T04:19:24;61.00;46.00;33.75
62547;PMS7003;48602;45.192;5.722;2023-01-29T04:21:51;67.50;52.25;35.00
62547;PMS7003;48602;45.192;5.722;2023-01-29T04:24:24;69.75;52.00;35.00
62547;PMS7003;48602;45.192;5.722;2023-01-29T04:27:25;64.00;51.25;35.25
62547;PMS7003;48602;45.192;5.722;2023-01-29T04:35:31;60.67;49.67;33.00
62547;PMS7003;48602;45.192;5.722;2023-01-29T04:40:50;69.33;51.33;33.00
62547;PMS7003;48602;45.192;5.722;2023-01-29T04:43:25;66.75;48.00;34.00
62547;PMS7003;48602;45.192;5.722;2023-01-29T04:46:28;57.33;43.67;31.33
62547;PMS7003;48602;45.192;5.722;2023-01-29T04:49:36;57.33;47.00;33.33
62547;PMS7003;48602;45.192;5.722;2023-01-29T04:52:24;52.67;42.33;30.33
62547;PMS7003;48602;45.192;5.722;2023-01-29T04:59:47;58.00;46.33;31.00
62547;PMS7003;48602;45.192;5.722;2023-01-29T05:02:19;54.67;45.00;31.00
62547;PMS7003;48602;45.192;5.722;2023-01-29T05:04:48;63.33;50.33;34.00
62547;PMS7003;48602;45.192;5.722;2023-01-29T05:07:14;56.33;44.33;29.33
62547;PMS7003;48602;45.192;5.722;2023-01-29T05:09:42;61.67;45.00;31.00
62547;PMS7003;48602;45.192;5.722;2023-01-29T05:12:10;53.33;44.67;29.67
62547;PMS7003;48602;45.192;5.722;2023-01-29T05:14:38;62.00;48.33;31.00
62547;PMS7003;48602;45.192;5.722;2023-01-29T05:17:09;57.00;43.00;29.67
62547;PMS7003;48602;45.192;5.722;2023-01-29T05:19:39;54.00;42.67;29.00
62547;PMS7003;48602;45.192;5.722;2023-01-29T05:22:05;45.67;41.67;27.67
62547;PMS7003;48602;45.192;5.722;2023-01-29T05:24:35;51.67;44.67;30.67
62547;PMS7003;48602;45.192;5.722;2023-01-29T05:27:02;50.33;43.33;26.67
62547;PMS7003;48602;45.192;5.722;2023-01-29T05:29:46;54.67;41.00;28.00
62547;PMS7003;48602;45.192;5.722;2023-01-29T05:32:13;50.33;41.33;28.67
62547;PMS7003;48602;45.192;5.722;2023-01-29T05:34:39;39.33;37.00;24.67
62547;PMS7003;48602;45.192;5.722;2023-01-29T05:37:05;50.67;40.67;30.00
62547;PMS7003;48602;45.192;5.722;2023-01-29T05:39:30;26.33;16.33;9.00
62547;PMS7003;48602;45.192;5.722;2023-01-29T05:41:56;56.67;42.33;27.67
62547;PMS7003;48602;45.192;5.722;2023-01-29T05:44:21;45.00;39.00;28.67
62547;PMS7003;48602;45.192;5.722;2023-01-29T05:46:46;43.00;37.33;27.67
62547;PMS7003;48602;45.192;5.722;2023-01-29T05:49:12;50.67;41.67;27.00
62547;PMS7003;48602;45.192;5.722;2023-01-29T05:51:37;59.00;44.00;28.67
62547;PMS7003;48602;45.192;5.722;2023-01-29T05:54:03;40.00;36.00;26.67
62547;PMS7003;48602;45.192;5.722;2023-01-29T05:56:29;45.33;39.67;27.00
62547;PMS7003;48602;45.192;5.722;2023-01-29T05:58:54;49.00;40.33;28.33
62547;PMS7003;48602;45.192;5.722;2023-01-29T06:01:21;49.33;39.33;26.00
62547;PMS7003;48602;45.192;5.722;2023-01-29T06:03:48;52.00;40.67;26.33
62547;PMS7003;48602;45.192;5.722;2023-01-29T06:06:14;37.67;29.00;22.00
62547;PMS7003;48602;45.192;5.722;2023-01-29T06:08:40;45.67;40.33;28.00
62547;PMS7003;48602;45.192;5.722;2023-01-29T06:11:06;43.33;39.67;28.00
62547;PMS7003;48602;45.192;5.722;2023-01-29T06:13:33;47.67;39.00;25.33
62547;PMS7003;48602;45.192;5.722;2023-01-29T06:15:59;45.67;38.00;26.67
62547;PMS7003;48602;45.192;5.722;2023-01-29T06:18:24;46.33;39.00;26.00
62547;PMS7003;48602;45.192;5.722;2023-01-29T06:20:50;36.33;31.00;21.67
62547;PMS7003;48602;45.192;5.722;2023-01-29T06:23:15;40.00;36.33;26.00
62547;PMS7003;48602;45.192;5.722;2023-01-29T06:25:41;39.00;36.00;24.33
62547;PMS7003;48602;45.192;5.722;2023-01-29T06:28:06;48.33;38.67;27.33
62547;PMS7003;48602;45.192;5.722;2023-01-29T06:30:32;57.50;42.00;28.00
62547;PMS7003;48602;45.192;5.722;2023-01-29T06:32:57;41.67;34.00;21.33
62547;PMS7003;48602;45.192;5.722;2023-01-29T06:35:23;41.33;33.33;23.00
62547;PMS7003;48602;45.192;5.722;2023-01-29T06:37:49;45.00;39.67;26.00
62547;PMS7003;48602;45.192;5.722;2023-01-29T06:40:15;47.00;39.00;26.00
62547;PMS7003;48602;45.192;5.722;2023-01-29T06:42:40;53.00;40.67;28.33
62547;PMS7003;48602;45.192;5.722;2023-01-29T06:45:06;43.33;40.33;29.00
62547;PMS7003;48602;45.192;5.722;2023-01-29T06:47:31;49.67;43.00;29.33
62547;PMS7003;48602;45.192;5.722;2023-01-29T06:49:57;42.00;38.00;26.67
62547;PMS7003;48602;45.192;5.722;2023-01-29T06:52:22;41.00;37.00;29.00
62547;PMS7003;48602;45.192;5.722;2023-01-29T06:54:49;49.33;41.67;28.33
62547;PMS7003;48602;45.192;5.722;2023-01-29T06:57:14;47.33;40.00;30.00
62547;PMS7003;48602;45.192;5.722;2023-01-29T06:59:40;53.00;43.00;29.00
62547;PMS7003;48602;45.192;5.722;2023-01-29T07:02:05;45.33;36.33;26.00
62547;PMS7003;48602;45.192;5.722;2023-01-29T07:04:31;46.67;38.33;26.00
62547;PMS7003;48602;45.192;5.722;2023-01-29T07:06:57;42.33;37.00;25.00
62547;PMS7003;48602;45.192;5.722;2023-01-29T07:09:23;40.67;35.67;27.33
62547;PMS7003;48602;45.192;5.722;2023-01-29T07:11:49;51.00;40.33;26.67
62547;PMS7003;48602;45.192;5.722;2023-01-29T07:14:14;47.33;38.00;24.67
62547;PMS7003;48602;45.192;5.722;2023-01-29T07:16:40;51.67;40.00;28.33
62547;PMS7003;48602;45.192;5.722;2023-01-29T07:19:05;44.67;34.67;26.00
62547;PMS7003;48602;45.192;5.722;2023-01-29T07:21:30;46.00;37.67;27.00
62547;PMS7003;48602;45.192;5.722;2023-01-29T07:23:56;46.00;36.33;24.33
62547;PMS7003;48602;45.192;5.722;2023-01-29T07:26:21;47.00;37.33;26.00
62547;PMS7003;48602;45.192;5.722;2023-01-29T07:28:46;38.00;34.33;24.33
62547;PMS7003;48602;45.192;5.722;2023-01-29T07:31:12;44.33;37.00;26.00
62547;PMS7003;48602;45.192;5.722;2023-01-29T07:33:39;36.33;29.00;17.00
62547;PMS7003;48602;45.192;5.722;2023-01-29T07:36:08;35.00;34.67;23.67
62547;PMS7003;48602;45.192;5.722;2023-01-29T07:38:36;41.00;35.33;24.67
62547;PMS7003;48602;45.192;5.722;2023-01-29T07:41:01;31.33;28.00;23.33
62547;PMS7003;48602;45.192;5.722;2023-01-29T07:43:27;42.00;35.67;25.33
62547;PMS7003;48602;45.192;5.722;2023-01-29T07:45:52;33.33;31.00;23.67
62547;PMS7003;48602;45.192;5.722;2023-01-29T07:48:17;44.33;37.00;25.00
62547;PMS7003;48602;45.192;5.722;2023-01-29T07:50:43;48.00;36.33;25.33
62547;PMS7003;48602;45.192;5.722;2023-01-29T07:53:11;45.33;38.33;25.33
62547;PMS7003;48602;45.192;5.722;2023-01-29T07:55:38;54.33;37.00;26.33
62547;PMS7003;48602;45.192;5.722;2023-01-29T07:58:04;31.33;30.00;25.67
62547;PMS7003;48602;45.192;5.722;2023-01-29T08:00:30;40.00;35.33;26.00
62547;PMS7003;48602;45.192;5.722;2023-01-29T08:03:06;39.33;36.67;26.67
62547;PMS7003;48602;45.192;5.722;2023-01-29T08:05:35;41.67;33.00;24.00
62547;PMS7003;48602;45.192;5.722;2023-01-29T08:08:00;34.67;30.00;25.33
62547;PMS7003;48602;45.192;5.722;2023-01-29T08:10:26;44.33;34.67;23.67
62547;PMS7003;48602;45.192;5.722;2023-01-29T08:12:58;43.00;39.33;26.00
62547;PMS7003;48602;45.192;5.722;2023-01-29T08:15:25;46.00;38.00;26.00
62547;PMS7003;48602;45.192;5.722;2023-01-29T08:17:51;39.67;34.67;25.67
62547;PMS7003;48602;45.192;5.722;2023-01-29T08:20:18;43.00;38.33;26.00
62547;PMS7003;48602;45.192;5.722;2023-01-29T08:22:43;36.00;34.00;23.67
62547;PMS7003;48602;45.192;5.722;2023-01-29T08:25:09;39.00;36.33;26.00
62547;PMS7003;48602;45.192;5.722;2023-01-29T08:27:35;41.00;37.00;26.00
62547;PMS7003;48602;45.192;5.722;2023-01-29T08:30:00;39.33;33.33;24.00
62547;PMS7003;48602;45.192;5.722;2023-01-29T08:32:26;50.00;38.00;26.33
62547;PMS7003;48602;45.192;5.722;2023-01-29T08:34:51;47.67;41.33;26.67
62547;PMS7003;48602;45.192;5.722;2023-01-29T08:37:17;45.67;36.33;25.00
62547;PMS7003;48602;45.192;5.722;2023-01-29T08:39:42;42.33;37.00;24.67
62547;PMS7003;48602;45.192;5.722;2023-01-29T08:42:07;44.67;33.33;23.67
62547;PMS7003;48602;45.192;5.722;2023-01-29T08:44:33;44.00;37.67;23.33
62547;PMS7003;48602;45.192;5.722;2023-01-29T08:46:58;27.67;26.67;18.33
62547;PMS7003;48602;45.192;5.722;2023-01-29T08:49:24;50.00;41.67;28.00
62547;PMS7003;48602;45.192;5.722;2023-01-29T08:51:49;39.33;30.33;15.00
62547;PMS7003;48602;45.192;5.722;2023-01-29T08:54:18;42.33;37.67;26.00
62547;PMS7003;48602;45.192;5.722;2023-01-29T08:56:44;40.33;30.67;25.33
62547;PMS7003;48602;45.192;5.722;2023-01-29T08:59:09;26.67;25.00;13.67
62547;PMS7003;48602;45.192;5.722;2023-01-29T09:01:35;42.00;35.67;27.00
62547;PMS7003;48602;45.192;5.722;2023-01-29T09:04:00;26.00;23.00;15.67
62547;PMS7003;48602;45.192;5.722;2023-01-29T09:06:26;46.33;36.00;24.67
62547;PMS7003;48602;45.192;5.722;2023-01-29T09:08:51;37.67;33.00;24.67
62547;PMS7003;48602;45.192;5.722;2023-01-29T09:11:17;38.33;35.67;26.00
62547;PMS7003;48602;45.192;5.722;2023-01-29T09:13:42;37.67;32.33;22.00
62547;PMS7003;48602;45.192;5.722;2023-01-29T09:16:07;41.33;36.33;26.67
62547;PMS7003;48602;45.192;5.722;2023-01-29T09:18:33;34.33;31.00;23.00
62547;PMS7003;48602;45.192;5.722;2023-01-29T09:20:59;36.00;31.33;24.33
62547;PMS7003;48602;45.192;5.722;2023-01-29T09:23:26;47.33;40.00;28.33
62547;PMS7003;48602;45.192;5.722;2023-01-29T09:25:52;42.67;38.67;26.00
62547;PMS7003;48602;45.192;5.722;2023-01-29T09:28:17;40.33;34.33;25.33
62547;PMS7003;48602;45.192;5.722;2023-01-29T09:30:43;48.33;38.00;25.67
62547;PMS7003;48602;45.192;5.722;2023-01-29T09:33:08;42.67;35.67;27.00
62547;PMS7003;48602;45.192;5.722;2023-01-29T09:35:34;43.33;38.33;27.00
62547;PMS7003;48602;45.192;5.722;2023-01-29T09:37:59;44.67;39.00;26.00
62547;PMS7003;48602;45.192;5.722;2023-01-29T09:40:26;52.67;40.67;26.00
62547;PMS7003;48602;45.192;5.722;2023-01-29T09:45:55;43.00;39.67;27.33
62547;PMS7003;48602;45.192;5.722;2023-01-29T09:48:26;51.00;42.33;30.00
62547;PMS7003;48602;45.192;5.722;2023-01-29T09:50:56;51.00;39.00;28.33
62547;PMS7003;48602;45.192;5.722;2023-01-29T09:53:35;41.00;35.67;24.67
62547;PMS7003;48602;45.192;5.722;2023-01-29T09:56:07;56.33;42.67;27.67
62547;PMS7003;48602;45.192;5.722;2023-01-29T09:58:42;62.33;48.33;32.33
62547;PMS7003;48602;45.192;5.722;2023-01-29T10:13:10;59.00;45.67;30.67
62547;PMS7003;48602;45.192;5.722;2023-01-29T10:15:22;58.67;47.33;30.67
62547;PMS7003;48602;45.192;5.722;2023-01-29T10:18:10;55.00;43.00;29.00
62547;PMS7003;48602;45.192;5.722;2023-01-29T10:24:21;61.00;46.67;32.33
62547;PMS7003;48602;45.192;5.722;2023-01-29T10:26:56;60.33;46.00;30.00
62547;PMS7003;48602;45.192;5.722;2023-01-29T10:29:23;67.67;51.67;35.00
62547;PMS7003;48602;45.192;5.722;2023-01-29T10:31:51;63.00;50.67;32.67
62547;PMS7003;48602;45.192;5.722;2023-01-29T10:37:23;60.33;48.00;32.00
62547;PMS7003;48602;45.192;5.722;2023-01-29T10:39:56;61.67;43.67;28.33
62547;PMS7003;48602;45.192;5.722;2023-01-29T11:02:41;54.67;43.00;27.00
62547;PMS7003;48602;45.192;5.722;2023-01-29T11:05:33;47.00;37.67;26.33
62547;PMS7003;48602;45.192;5.722;2023-01-29T11:08:07;47.33;37.67;27.00
62547;PMS7003;48602;45.192;5.722;2023-01-29T11:10:39;42.33;37.00;24.00
62547;PMS7003;48602;45.192;5.722;2023-01-29T11:13:13;51.00;41.33;28.33
62547;PMS7003;48602;45.192;5.722;2023-01-29T11:15:40;41.67;37.00;26.00
62547;PMS7003;48602;45.192;5.722;2023-01-29T11:18:06;45.00;37.67;27.33
62547;PMS7003;48602;45.192;5.722;2023-01-29T11:20:38;46.67;38.67;24.00
62547;PMS7003;48602;45.192;5.722;2023-01-29T11:23:17;53.33;38.33;25.00
62547;PMS7003;48602;45.192;5.722;2023-01-29T11:25:52;40.00;32.67;24.33
62547;PMS7003;48602;45.192;5.722;2023-01-29T11:31:03;47.33;34.33;26.33
62547;PMS7003;48602;45.192;5.722;2023-01-29T11:33:40;56.00;42.00;27.67
62547;PMS7003;48602;45.192;5.722;2023-01-29T11:36:24;44.33;37.33;27.00
62547;PMS7003;48602;45.192;5.722;2023-01-29T11:41:48;54.00;40.00;26.33
62547;PMS7003;48602;45.192;5.722;2023-01-29T11:44:25;39.33;35.67;26.33
62547;PMS7003;48602;45.192;5.722;2023-01-29T11:46:58;48.00;39.33;27.00
62547;PMS7003;48602;45.192;5.722;2023-01-29T11:49:55;55.00;41.67;26.33
62547;PMS7003;48602;45.192;5.722;2023-01-29T11:52:38;40.00;36.33;26.33
62547;PMS7003;48602;45.192;5.722;2023-01-29T11:55:12;41.00;35.00;24.00
62547;PMS7003;48602;45.192;5.722;2023-01-29T12:00:36;42.00;38.00;25.00
62547;PMS7003;48602;45.192;5.722;2023-01-29T12:05:58;48.33;36.33;26.00
62547;PMS7003;48602;45.192;5.722;2023-01-29T12:08:31;41.67;36.00;24.33
62547;PMS7003;48602;45.192;5.722;2023-01-29T12:11:13;39.00;34.33;24.67
62547;PMS7003;48602;45.192;5.722;2023-01-29T12:13:52;43.67;39.33;27.33
62547;PMS7003;48602;45.192;5.722;2023-01-29T12:24:32;44.67;33.67;23.00
62547;PMS7003;48602;45.192;5.722;2023-01-29T12:32:28;48.00;40.00;27.33
62547;PMS7003;48602;45.192;5.722;2023-01-29T12:40:14;40.00;36.67;26.00
62547;PMS7003;48602;45.192;5.722;2023-01-29T12:42:45;45.67;38.00;26.00
62547;PMS7003;48602;45.192;5.722;2023-01-29T12:45:20;47.67;41.00;26.00
62547;PMS7003;48602;45.192;5.722;2023-01-29T12:47:50;45.33;35.33;25.33
62547;PMS7003;48602;45.192;5.722;2023-01-29T12:50:34;52.00;39.00;24.00
62547;PMS7003;48602;45.192;5.722;2023-01-29T12:55:43;43.67;36.67;26.00
62547;PMS7003;48602;45.192;5.722;2023-01-29T12:58:15;45.67;37.00;24.33
62547;PMS7003;48602;45.192;5.722;2023-01-29T13:00:47;44.67;36.67;27.00
62547;PMS7003;48602;45.192;5.722;2023-01-29T13:03:20;41.00;38.00;26.00
62547;PMS7003;48602;45.192;5.722;2023-01-29T13:06:10;37.33;35.00;25.00
62547;PMS7003;48602;45.192;5.722;2023-01-29T13:08:42;43.33;38.33;25.33
62547;PMS7003;48602;45.192;5.722;2023-01-29T13:11:25;41.33;35.67;24.00
62547;PMS7003;48602;45.192;5.722;2023-01-29T13:14:00;46.00;36.00;24.00
62547;PMS7003;48602;45.192;5.722;2023-01-29T13:16:36;41.00;37.00;25.67
62547;PMS7003;48602;45.192;5.722;2023-01-29T13:19:08;49.00;37.00;25.67
62547;PMS7003;48602;45.192;5.722;2023-01-29T13:22:14;46.00;39.00;26.33
62547;PMS7003;48602;45.192;5.722;2023-01-29T13:24:51;43.33;35.67;24.33
62547;PMS7003;48602;45.192;5.722;2023-01-29T13:27:25;42.00;37.00;25.00
62547;PMS7003;48602;45.192;5.722;2023-01-29T13:29:53;54.67;43.33;28.33
62547;PMS7003;48602;45.192;5.722;2023-01-29T13:32:27;42.00;35.67;25.00
62547;PMS7003;48602;45.192;5.722;2023-01-29T13:34:56;49.00;38.33;26.33
62547;PMS7003;48602;45.192;5.722;2023-01-29T13:37:31;41.33;36.00;25.00
62547;PMS7003;48602;45.192;5.722;2023-01-29T13:39:59;44.33;38.33;24.00
62547;PMS7003;48602;45.192;5.722;2023-01-29T13:45:02;39.00;36.33;25.33
62547;PMS7003;48602;45.192;5.722;2023-01-29T13:47:31;32.67;28.67;19.00
62547;PMS7003;48602;45.192;5.722;2023-01-29T13:53:01;50.00;39.67;26.00
62547;PMS7003;48602;45.192;5.722;2023-01-29T13:55:30;39.00;34.67;23.67
62547;PMS7003;48602;45.192;5.722;2023-01-29T13:58:01;43.67;34.00;21.00
62547;PMS7003;48602;45.192;5.722;2023-01-29T14:00:47;45.33;37.67;23.67
62547;PMS7003;48602;45.192;5.722;2023-01-29T14:13:39;40.33;32.67;24.00
62547;PMS7003;48602;45.192;5.722;2023-01-29T14:18:34;40.33;35.00;23.33
62547;PMS7003;48602;45.192;5.722;2023-01-29T14:21:21;50.67;38.00;23.67
62547;PMS7003;48602;45.192;5.722;2023-01-29T14:23:52;36.33;33.33;20.33
62547;PMS7003;48602;45.192;5.722;2023-01-29T14:28:55;49.67;40.00;23.33
62547;PMS7003;48602;45.192;5.722;2023-01-29T14:34:06;37.00;33.50;24.00
62547;PMS7003;48602;45.192;5.722;2023-01-29T14:36:40;42.00;36.33;25.00
62547;PMS7003;48602;45.192;5.722;2023-01-29T14:41:54;31.33;26.33;15.00
62547;PMS7003;48602;45.192;5.722;2023-01-29T14:47:22;41.00;32.33;22.33
62547;PMS7003;48602;45.192;5.722;2023-01-29T14:56:32;31.67;30.33;22.00
62547;PMS7003;48602;45.192;5.722;2023-01-29T14:58:54;37.67;35.33;21.00
62547;PMS7003;48602;45.192;5.722;2023-01-29T15:01:30;36.00;32.33;22.33
62547;PMS7003;48602;45.192;5.722;2023-01-29T15:06:46;41.67;35.67;24.33
62547;PMS7003;48602;45.192;5.722;2023-01-29T15:14:37;44.67;37.00;24.00
62547;PMS7003;48602;45.192;5.722;2023-01-29T15:19:41;47.33;39.00;25.67
62547;PMS7003;48602;45.192;5.722;2023-01-29T15:22:19;37.00;35.00;24.00
62547;PMS7003;48602;45.192;5.722;2023-01-29T15:24:46;46.00;39.00;26.00
62547;PMS7003;48602;45.192;5.722;2023-01-29T15:27:26;48.00;39.33;25.33
62547;PMS7003;48602;45.192;5.722;2023-01-29T15:29:55;41.67;34.00;24.00
62547;PMS7003;48602;45.192;5.722;2023-01-29T15:32:27;43.67;36.33;24.00
62547;PMS7003;48602;45.192;5.722;2023-01-29T15:35:00;47.67;39.33;25.33
62547;PMS7003;48602;45.192;5.722;2023-01-29T15:37:33;39.67;34.00;23.33
62547;PMS7003;48602;45.192;5.722;2023-01-29T15:40:00;37.67;33.00;20.00
62547;PMS7003;48602;45.192;5.722;2023-01-29T15:42:40;39.67;32.33;23.33
62547;PMS7003;48602;45.192;5.722;2023-01-29T15:47:51;44.33;38.67;24.67
62547;PMS7003;48602;45.192;5.722;2023-01-29T15:50:26;34.00;34.00;22.67
62547;PMS7003;48602;45.192;5.722;2023-01-29T15:52:52;49.33;39.33;25.33
62547;PMS7003;48602;45.192;5.722;2023-01-29T15:55:20;36.67;32.00;24.33
62547;PMS7003;48602;45.192;5.722;2023-01-29T15:57:47;55.67;41.00;28.67
62547;PMS7003;48602;45.192;5.722;2023-01-29T16:00:19;48.00;40.67;26.67
62547;PMS7003;48602;45.192;5.722;2023-01-29T16:02:46;41.67;33.33;21.00
62547;PMS7003;48602;45.192;5.722;2023-01-29T16:05:13;41.00;36.00;22.00
62547;PMS7003;48602;45.192;5.722;2023-01-29T16:07:41;48.33;37.33;25.67
62547;PMS7003;48602;45.192;5.722;2023-01-29T16:10:13;41.00;37.33;25.67
62547;PMS7003;48602;45.192;5.722;2023-01-29T16:12:42;50.67;41.00;26.00
62547;PMS7003;48602;45.192;5.722;2023-01-29T16:15:14;40.67;34.00;22.67
62547;PMS7003;48602;45.192;5.722;2023-01-29T16:18:03;44.33;37.67;27.33
62547;PMS7003;48602;45.192;5.722;2023-01-29T16:20:44;40.33;35.00;23.67
62547;PMS7003;48602;45.192;5.722;2023-01-29T16:23:34;39.67;37.00;25.00
62547;PMS7003;48602;45.192;5.722;2023-01-29T16:26:05;40.00;34.00;23.67
62547;PMS7003;48602;45.192;5.722;2023-01-29T16:28:38;42.67;33.00;21.33
62547;PMS7003;48602;45.192;5.722;2023-01-29T16:31:05;51.67;41.67;28.00
62547;PMS7003;48602;45.192;5.722;2023-01-29T16:33:34;38.00;33.33;23.33
62547;PMS7003;48602;45.192;5.722;2023-01-29T16:36:08;40.00;36.33;25.33
62547;PMS7003;48602;45.192;5.722;2023-01-29T16:38:44;43.00;37.00;25.33
62547;PMS7003;48602;45.192;5.722;2023-01-29T16:41:34;42.67;37.67;25.00
62547;PMS7003;48602;45.192;5.722;2023-01-29T16:46:48;43.00;37.33;25.00
62547;PMS7003;48602;45.192;5.722;2023-01-29T16:51:51;40.33;37.00;24.67
62547;PMS7003;48602;45.192;5.722;2023-01-29T16:54:19;50.33;42.00;27.00
62547;PMS7003;48602;45.192;5.722;2023-01-29T16:56:49;48.33;39.67;26.00
62547;PMS7003;48602;45.192;5.722;2023-01-29T16:59:20;60.67;45.00;27.33
62547;PMS7003;48602;45.192;5.722;2023-01-29T17:01:53;56.00;41.67;28.00